createdAt,value
2018-12-18T00:00:29.857Z,99.99
2018-12-18T00:01:39.930Z,99.99
2018-12-18T00:02:49.993Z,99.99
2018-12-18T00:04:00.046Z,99.99
2018-12-18T00:05:10.126Z,99.99
2018-12-18T00:06:19.960Z,99.99
2018-12-18T00:07:30.259Z,99.99
2018-12-18T00:08:40.427Z,99.99
2018-12-18T00:09:50.523Z,99.99
2018-12-18T00:11:00.601Z,99.99
2018-12-18T00:12:10.918Z,99.99
2018-12-18T00:13:20.751Z,99.99
2018-12-18T00:14:30.589Z,99.99
2018-12-18T00:15:42.382Z,99.99
2018-12-18T00:16:52.501Z,99.99
2018-12-18T00:18:05.171Z,99.99
2018-12-18T00:19:15.232Z,99.99
2018-12-18T00:20:25.280Z,99.99
2018-12-18T00:21:35.342Z,99.99
2018-12-18T00:22:45.449Z,99.99
2018-12-18T00:23:55.532Z,99.99
2018-12-18T00:25:05.326Z,99.99
2018-12-18T00:26:15.401Z,99.99
2018-12-18T00:27:25.855Z,99.99
2018-12-18T00:28:35.669Z,99.99
2018-12-18T00:29:45.749Z,99.99
2018-12-18T00:30:55.813Z,99.99
2018-12-18T00:32:05.867Z,99.99
2018-12-18T00:33:15.962Z,99.99
2018-12-18T00:34:25.795Z,99.99
2018-12-18T00:35:35.873Z,99.99
2018-12-18T00:36:45.954Z,99.99
2018-12-18T00:37:56.005Z,99.99
2018-12-18T00:39:06.397Z,99.99
2018-12-18T00:40:16.265Z,99.99
2018-12-18T00:41:26.314Z,99.99
2018-12-18T00:42:36.377Z,99.99
2018-12-18T00:43:46.435Z,99.99
2018-12-18T00:44:56.247Z,99.99
2018-12-18T00:46:06.390Z,99.99
2018-12-18T00:47:16.460Z,99.99
2018-12-18T00:48:26.546Z,99.99
2018-12-18T00:49:36.620Z,99.99
2018-12-18T00:50:46.413Z,99.99
2018-12-18T00:51:56.233Z,99.99
2018-12-18T00:53:07.701Z,99.99
2018-12-18T00:54:16.979Z,99.99
2018-12-18T00:55:27.041Z,99.99
2018-12-18T00:56:37.356Z,99.99
2018-12-18T00:57:47.457Z,99.99
2018-12-18T00:58:57.537Z,99.99
2018-12-18T01:00:07.601Z,99.99
2018-12-18T01:01:17.389Z,99.99
2018-12-18T01:02:27.486Z,99.99
2018-12-18T01:03:37.535Z,99.99
2018-12-18T01:04:47.587Z,99.99
2018-12-18T01:05:57.665Z,99.99
2018-12-18T01:07:07.723Z,99.99
2018-12-18T01:08:18.048Z,99.99
2018-12-18T01:09:42.860Z,99.99
2018-12-18T01:10:52.921Z,99.99
2018-12-18T01:12:02.961Z,99.99
2018-12-18T01:13:13.031Z,99.99
2018-12-18T01:14:23.084Z,99.99
2018-12-18T01:15:33.245Z,99.99
2018-12-18T01:16:43.560Z,99.99
2018-12-18T01:17:53.395Z,99.99
2018-12-18T01:19:03.907Z,99.99
2018-12-18T01:20:13.963Z,99.99
2018-12-18T01:21:24.028Z,99.99
2018-12-18T01:22:34.027Z,99.99
2018-12-18T01:23:44.074Z,99.99
2018-12-18T01:24:54.150Z,99.99
2018-12-18T01:26:04.207Z,99.99
2018-12-18T01:27:14.518Z,99.99
2018-12-18T01:28:24.539Z,99.99
2018-12-18T01:29:34.391Z,99.99
2018-12-18T01:30:44.471Z,99.99
2018-12-18T01:31:54.289Z,99.99
2018-12-18T01:33:04.758Z,99.99
2018-12-18T01:34:14.564Z,99.99
2018-12-18T01:35:24.647Z,99.99
2018-12-18T01:36:34.733Z,99.99
2018-12-18T01:37:44.798Z,99.99
2018-12-18T01:38:54.872Z,99.99
2018-12-18T01:40:05.833Z,99.99
2018-12-18T01:41:15.896Z,99.99
2018-12-18T01:42:25.692Z,99.99
2018-12-18T01:43:35.790Z,99.99
2018-12-18T01:44:45.855Z,99.99
2018-12-18T01:45:55.918Z,99.99
2018-12-18T01:47:07.388Z,99.99
2018-12-18T01:48:17.436Z,99.99
2018-12-18T01:49:27.508Z,99.99
2018-12-18T01:50:37.688Z,99.99
2018-12-18T01:51:47.750Z,99.99
2018-12-18T01:52:57.818Z,99.99
2018-12-18T01:54:08.096Z,99.99
2018-12-18T01:55:18.150Z,99.99
2018-12-18T01:56:28.270Z,99.99
2018-12-18T01:57:38.346Z,99.99
2018-12-18T01:58:48.506Z,99.99
2018-12-18T01:59:58.315Z,99.99
2018-12-18T02:01:10.913Z,99.99
2018-12-18T02:02:20.876Z,99.99
2018-12-18T02:03:30.680Z,99.99
2018-12-18T02:04:40.746Z,99.99
2018-12-18T02:05:50.847Z,99.99
2018-12-18T02:07:01.261Z,99.99
2018-12-18T02:08:11.073Z,99.99
2018-12-18T02:09:21.141Z,99.99
2018-12-18T02:10:31.208Z,99.99
2018-12-18T02:11:41.471Z,99.99
2018-12-18T02:12:51.248Z,99.99
2018-12-18T02:14:01.049Z,99.99
2018-12-18T02:15:11.212Z,99.99
2018-12-18T02:16:21.285Z,99.99
2018-12-18T02:17:31.344Z,99.99
2018-12-18T02:18:41.400Z,99.99
2018-12-18T02:19:51.537Z,99.99
2018-12-18T02:21:02.396Z,99.99
2018-12-18T02:22:11.943Z,99.99
2018-12-18T02:23:21.997Z,99.99
2018-12-18T02:24:32.074Z,99.99
2018-12-18T02:25:42.202Z,99.99
2018-12-18T02:26:51.988Z,99.99
2018-12-18T02:28:01.793Z,99.99
2018-12-18T02:29:11.880Z,99.99
2018-12-18T02:30:22.006Z,99.99
2018-12-18T02:31:32.083Z,99.99
2018-12-18T02:32:42.388Z,99.99
2018-12-18T02:33:52.485Z,99.99
2018-12-18T02:35:02.805Z,99.99
2018-12-18T02:36:12.870Z,99.99
2018-12-18T02:37:23.008Z,99.99
2018-12-18T02:38:33.120Z,99.99
2018-12-18T02:39:43.180Z,99.99
2018-12-18T02:40:53.258Z,99.99
2018-12-18T02:42:03.315Z,99.99
2018-12-18T02:43:13.370Z,99.99
2018-12-18T02:44:23.207Z,99.99
2018-12-18T02:45:33.512Z,99.99
2018-12-18T02:46:43.588Z,99.99
2018-12-18T02:47:53.651Z,99.99
2018-12-18T02:49:06.073Z,99.99
2018-12-18T02:50:16.156Z,99.99
2018-12-18T02:51:26.275Z,99.99
2018-12-18T02:52:36.335Z,99.99
2018-12-18T02:53:46.155Z,99.99
2018-12-18T02:54:56.266Z,99.99
2018-12-18T02:56:06.415Z,99.99
2018-12-18T02:57:16.497Z,99.99
2018-12-18T02:58:26.303Z,99.99
2018-12-18T02:59:36.372Z,99.99
2018-12-18T03:00:46.504Z,99.99
2018-12-18T03:01:56.563Z,99.99
2018-12-18T03:03:06.486Z,99.99
2018-12-18T03:34:46.336Z,96.69
2018-12-18T03:35:55.900Z,96.88
2018-12-18T03:37:06.705Z,97.92
2018-12-18T03:38:16.980Z,99.15
2018-12-18T03:39:27.048Z,99.99
2018-12-18T03:40:37.091Z,99.99
2018-12-18T03:41:47.157Z,99.99
2018-12-18T03:42:57.213Z,99.99
2018-12-18T03:44:07.282Z,99.99
2018-12-18T03:45:17.360Z,99.99
2018-12-18T03:46:27.464Z,99.99
2018-12-18T03:47:36.753Z,99.99
2018-12-18T03:48:47.032Z,99.99
2018-12-18T03:49:57.102Z,99.99
2018-12-18T03:51:06.940Z,99.99
2018-12-18T03:52:16.534Z,99.99
2018-12-18T03:53:26.583Z,99.99
2018-12-18T03:54:36.137Z,99.99
2018-12-18T03:55:46.200Z,99.99
2018-12-18T03:56:56.051Z,99.99
2018-12-18T03:58:07.548Z,99.99
2018-12-18T03:59:17.623Z,99.99
2018-12-18T04:00:27.701Z,99.99
2018-12-18T04:01:37.878Z,99.99
2018-12-18T04:02:47.928Z,99.99
2018-12-18T04:03:58.061Z,99.99
2018-12-18T04:05:08.813Z,99.99
2018-12-18T04:06:19.095Z,99.99
2018-12-18T04:07:29.435Z,99.99
2018-12-18T04:08:39.781Z,99.99
2018-12-18T04:09:50.060Z,99.99
2018-12-18T04:11:00.096Z,99.99
2018-12-18T04:12:09.753Z,99.99
2018-12-18T04:13:19.825Z,99.99
2018-12-18T04:14:29.905Z,99.99
2018-12-18T04:15:40.247Z,99.99
2018-12-18T04:16:50.309Z,99.99
2018-12-18T04:18:01.096Z,99.99
2018-12-18T04:19:11.169Z,99.99
2018-12-18T04:20:21.235Z,99.99
2018-12-18T04:21:31.503Z,99.99
2018-12-18T04:22:41.776Z,99.99
2018-12-18T04:23:52.287Z,99.99
2018-12-18T04:25:02.099Z,99.99
2018-12-18T04:26:11.919Z,99.99
2018-12-18T04:27:22.000Z,99.99
2018-12-18T04:28:32.105Z,99.99
2018-12-18T04:29:41.918Z,99.99
2018-12-18T04:30:52.012Z,99.99
2018-12-18T04:32:02.083Z,99.99
2018-12-18T04:33:12.219Z,99.99
2018-12-18T04:34:22.277Z,99.99
2018-12-18T04:35:32.348Z,99.99
2018-12-18T04:36:42.167Z,99.99
2018-12-18T04:37:52.418Z,99.99
2018-12-18T04:39:03.436Z,99.99
2018-12-18T04:40:13.276Z,99.99
2018-12-18T04:41:23.334Z,99.99
2018-12-18T04:42:33.398Z,99.99
2018-12-18T04:43:43.195Z,99.99
2018-12-18T04:44:53.267Z,99.99
2018-12-18T04:46:04.595Z,99.99
2018-12-18T04:47:14.656Z,99.99
2018-12-18T04:48:24.714Z,99.99
2018-12-18T04:49:34.819Z,99.99
2018-12-18T04:50:44.377Z,99.99
2018-12-18T04:51:54.458Z,99.99
2018-12-18T04:53:04.523Z,99.99
2018-12-18T04:54:14.634Z,99.99
2018-12-18T04:55:24.680Z,99.99
2018-12-18T04:56:34.751Z,99.99
2018-12-18T04:57:44.829Z,99.99
2018-12-18T04:58:54.878Z,99.99
2018-12-18T05:00:04.934Z,99.99
2018-12-18T05:01:14.731Z,99.99
2018-12-18T05:02:24.928Z,99.99
2018-12-18T05:03:34.727Z,99.99
2018-12-18T05:04:50.161Z,99.99
2018-12-18T05:06:00.555Z,99.99
2018-12-18T05:07:10.365Z,99.99
2018-12-18T05:08:20.297Z,99.99
2018-12-18T05:09:30.374Z,99.99
2018-12-18T05:10:40.628Z,99.99
2018-12-18T05:11:50.687Z,99.99
2018-12-18T05:13:00.739Z,99.99
2018-12-18T05:14:10.567Z,99.99
2018-12-18T05:15:20.351Z,99.99
2018-12-18T05:16:30.419Z,99.99
2018-12-18T05:17:40.037Z,99.99
2018-12-18T05:18:49.843Z,99.99
2018-12-18T05:19:59.663Z,99.99
2018-12-18T05:21:09.705Z,99.99
2018-12-18T05:22:19.847Z,99.99
2018-12-18T05:23:29.659Z,99.99
2018-12-18T05:24:39.709Z,99.99
2018-12-18T05:25:49.514Z,99.99
2018-12-18T05:26:59.557Z,99.99
2018-12-18T05:28:10.326Z,99.99
2018-12-18T05:29:21.630Z,99.99
2018-12-18T05:30:31.726Z,99.99
2018-12-18T05:31:41.624Z,99.99
2018-12-18T05:32:51.563Z,99.99
2018-12-18T05:34:02.966Z,99.99
2018-12-18T05:35:13.757Z,99.99
2018-12-18T05:36:23.540Z,99.99
2018-12-18T05:37:33.763Z,99.99
2018-12-18T05:38:43.312Z,99.99
2018-12-18T05:39:53.385Z,99.99
2018-12-18T05:41:03.484Z,99.99
2018-12-18T05:42:13.547Z,99.99
2018-12-18T05:43:23.704Z,99.99
2018-12-18T05:44:33.988Z,99.99
2018-12-18T05:45:44.065Z,99.99
2018-12-18T05:46:54.118Z,99.99
2018-12-18T05:48:04.171Z,99.99
2018-12-18T05:49:14.278Z,99.99
2018-12-18T05:50:24.554Z,99.99
2018-12-18T05:51:34.623Z,99.99
2018-12-18T05:52:44.741Z,99.99
2018-12-18T05:53:54.846Z,99.99
2018-12-18T05:55:04.918Z,99.99
2018-12-18T05:56:15.477Z,99.99
2018-12-18T05:57:25.521Z,99.99
2018-12-18T05:58:35.577Z,99.99
2018-12-18T05:59:45.852Z,99.99
2018-12-18T06:00:55.651Z,99.99
2018-12-18T06:02:05.707Z,99.99
2018-12-18T06:03:15.774Z,99.99
2018-12-18T06:04:25.825Z,99.99
2018-12-18T06:05:35.888Z,99.99
2018-12-18T06:06:45.934Z,99.99
2018-12-18T06:07:56.007Z,99.99
2018-12-18T06:09:08.208Z,99.99
2018-12-18T06:10:18.265Z,99.99
2018-12-18T06:11:28.336Z,99.99
2018-12-18T06:12:38.423Z,99.99
2018-12-18T06:13:49.010Z,99.99
2018-12-18T06:14:59.073Z,99.99
2018-12-18T06:16:09.147Z,99.99
2018-12-18T06:17:19.216Z,99.99
2018-12-18T06:18:29.294Z,99.99
2018-12-18T06:19:39.357Z,99.99
2018-12-18T06:20:49.441Z,99.99
2018-12-18T06:21:59.705Z,99.99
2018-12-18T06:23:09.791Z,99.99
2018-12-18T06:24:19.904Z,99.99
2018-12-18T06:25:29.713Z,99.99
2018-12-18T06:26:39.344Z,99.99
2018-12-18T06:27:49.139Z,99.99
2018-12-18T06:28:59.195Z,99.99
2018-12-18T06:30:09.238Z,99.99
2018-12-18T06:31:20.018Z,99.99
2018-12-18T06:32:30.105Z,99.99
2018-12-18T06:33:40.197Z,99.99
2018-12-18T06:34:50.276Z,99.99
2018-12-18T06:36:00.355Z,99.99
2018-12-18T06:37:10.426Z,99.99
2018-12-18T06:38:20.242Z,99.99
2018-12-18T06:39:30.298Z,99.99
2018-12-18T06:40:40.408Z,99.99
2018-12-18T06:41:50.213Z,99.99
2018-12-18T06:42:59.764Z,99.99
2018-12-18T06:44:09.830Z,99.99
2018-12-18T06:45:19.985Z,99.99
2018-12-18T06:46:30.313Z,99.99
2018-12-18T06:47:40.548Z,99.99
2018-12-18T06:48:50.624Z,99.99
2018-12-18T06:50:00.758Z,99.99
2018-12-18T06:51:10.553Z,99.99
2018-12-18T06:52:20.353Z,99.99
2018-12-18T06:53:30.454Z,99.99
2018-12-18T06:54:40.284Z,99.99
2018-12-18T06:55:50.347Z,99.99
2018-12-18T06:57:00.509Z,99.99
2018-12-18T06:58:10.574Z,99.99
2018-12-18T06:59:20.380Z,99.99
2018-12-18T07:00:30.736Z,99.99
2018-12-18T07:01:40.790Z,99.99
2018-12-18T07:02:50.865Z,99.99
2018-12-18T07:04:00.694Z,99.99
2018-12-18T07:05:16.491Z,99.99
2018-12-18T07:06:26.909Z,99.99
2018-12-18T07:07:36.982Z,99.99
2018-12-18T07:08:46.801Z,99.99
2018-12-18T07:09:56.858Z,99.99
2018-12-18T07:11:07.039Z,99.99
2018-12-18T07:12:17.091Z,99.99
2018-12-18T07:13:27.176Z,99.99
2018-12-18T07:14:36.954Z,99.99
2018-12-18T07:15:47.076Z,99.99
2018-12-18T07:16:56.935Z,99.99
2018-12-18T07:18:07.070Z,99.99
2018-12-18T07:19:17.151Z,99.99
2018-12-18T07:20:27.210Z,99.99
2018-12-18T07:21:37.017Z,99.99
2018-12-18T07:22:47.073Z,99.99
2018-12-18T07:23:57.192Z,99.99
2018-12-18T07:25:06.991Z,99.99
2018-12-18T07:26:17.074Z,99.99
2018-12-18T07:27:27.128Z,99.99
2018-12-18T07:28:37.205Z,99.99
2018-12-18T07:29:47.054Z,99.99
2018-12-18T07:30:57.187Z,99.99
2018-12-18T07:32:07.373Z,99.99
2018-12-18T07:33:17.440Z,99.99
2018-12-18T07:34:33.226Z,99.99
2018-12-18T07:35:43.591Z,99.99
2018-12-18T07:36:53.394Z,99.99
2018-12-18T07:38:05.355Z,99.99
2018-12-18T07:39:15.430Z,99.99
2018-12-18T07:40:25.599Z,99.99
2018-12-18T07:41:35.660Z,99.99
2018-12-18T07:42:45.441Z,99.99
2018-12-18T07:43:54.982Z,99.99
2018-12-18T07:45:05.060Z,99.99
2018-12-18T07:46:14.852Z,99.99
2018-12-18T07:47:24.649Z,99.99
2018-12-18T07:48:34.715Z,99.99
2018-12-18T07:49:44.525Z,99.99
2018-12-18T07:50:54.650Z,99.99
2018-12-18T07:52:04.709Z,99.99
2018-12-18T07:53:14.773Z,99.99
2018-12-18T07:54:25.086Z,99.99
2018-12-18T07:55:35.146Z,99.99
2018-12-18T07:56:45.017Z,99.99
2018-12-18T07:57:55.090Z,99.99
2018-12-18T07:59:05.169Z,99.99
2018-12-18T08:00:15.256Z,99.99
2018-12-18T08:01:25.328Z,99.99
2018-12-18T08:02:35.438Z,99.99
2018-12-18T08:03:45.253Z,99.99
2018-12-18T08:04:55.055Z,99.99
2018-12-18T08:06:05.107Z,99.99
2018-12-18T08:07:15.406Z,99.99
2018-12-18T08:08:25.314Z,99.99
2018-12-18T08:09:35.632Z,99.99
2018-12-18T08:10:46.044Z,99.99
2018-12-18T08:11:55.866Z,99.99
2018-12-18T08:13:07.749Z,99.99
2018-12-18T08:14:17.608Z,99.99
2018-12-18T08:15:27.684Z,99.99
2018-12-18T08:16:37.492Z,99.99
2018-12-18T08:17:47.567Z,99.99
2018-12-18T08:18:57.630Z,99.99
2018-12-18T08:20:07.770Z,99.99
2018-12-18T08:21:17.850Z,99.99
2018-12-18T08:22:27.912Z,99.99
2018-12-18T08:23:38.051Z,99.99
2018-12-18T08:24:48.118Z,99.99
2018-12-18T08:25:58.233Z,99.99
2018-12-18T08:27:08.316Z,99.99
2018-12-18T08:28:18.382Z,99.99
2018-12-18T08:29:28.476Z,99.99
2018-12-18T08:30:38.543Z,99.99
2018-12-18T08:31:48.405Z,99.99
2018-12-18T08:32:58.470Z,99.99
2018-12-18T08:34:08.560Z,99.99
2018-12-18T08:35:18.879Z,99.99
2018-12-18T08:36:28.980Z,99.99
2018-12-18T08:37:39.315Z,99.99
2018-12-18T08:38:49.454Z,99.99
2018-12-18T08:39:59.334Z,99.99
2018-12-18T08:41:09.408Z,99.99
2018-12-18T08:42:19.498Z,99.99
2018-12-18T08:43:29.567Z,99.99
2018-12-18T08:44:39.632Z,99.99
2018-12-18T08:45:49.705Z,99.99
2018-12-18T08:46:59.511Z,99.99
2018-12-18T08:48:09.307Z,99.99
2018-12-18T08:49:19.390Z,99.99
2018-12-18T08:50:29.479Z,99.99
2018-12-18T08:51:39.540Z,99.99
2018-12-18T08:52:49.611Z,99.99
2018-12-18T08:53:59.512Z,99.99
2018-12-18T08:55:09.075Z,99.99
2018-12-18T08:56:19.175Z,99.99
2018-12-18T08:57:29.262Z,99.99
2018-12-18T08:58:39.667Z,99.99
2018-12-18T08:59:49.806Z,99.99
2018-12-18T09:00:59.878Z,99.99
2018-12-18T09:02:09.939Z,99.99
2018-12-18T09:03:19.745Z,99.99
2018-12-18T09:04:29.808Z,99.99
2018-12-18T09:05:45.505Z,99.99
2018-12-18T09:06:55.605Z,99.99
2018-12-18T09:08:05.675Z,99.99
2018-12-18T09:09:15.748Z,99.99
2018-12-18T09:10:25.546Z,99.99
2018-12-18T09:11:35.625Z,99.99
2018-12-18T09:12:45.751Z,99.99
2018-12-18T09:13:55.827Z,99.99
2018-12-18T09:15:05.616Z,99.99
2018-12-18T09:16:15.409Z,99.99
2018-12-18T09:17:25.452Z,99.99
2018-12-18T09:18:35.559Z,99.99
2018-12-18T09:19:45.693Z,99.99
2018-12-18T09:20:55.516Z,99.99
2018-12-18T09:22:05.610Z,99.99
2018-12-18T09:23:15.682Z,99.99
2018-12-18T09:24:25.742Z,99.99
2018-12-18T09:25:35.896Z,99.99
2018-12-18T09:26:45.954Z,99.99
2018-12-18T09:27:55.738Z,99.99
2018-12-18T09:29:08.207Z,99.99
2018-12-18T09:30:18.009Z,99.99
2018-12-18T09:31:28.071Z,99.99
2018-12-18T09:32:37.880Z,99.99
2018-12-18T09:33:47.933Z,99.99
2018-12-18T09:34:58.004Z,99.99
2018-12-18T09:36:10.100Z,99.99
2018-12-18T09:37:19.654Z,99.99
2018-12-18T09:38:29.457Z,99.99
2018-12-18T09:39:39.012Z,99.99
2018-12-18T09:40:49.102Z,99.99
2018-12-18T09:41:59.224Z,99.99
2018-12-18T09:43:09.030Z,99.99
2018-12-18T09:44:19.117Z,99.99
2018-12-18T09:45:29.174Z,99.99
2018-12-18T09:46:39.235Z,99.99
2018-12-18T09:47:49.302Z,99.99
2018-12-18T09:48:59.113Z,99.99
2018-12-18T09:50:09.183Z,99.99
2018-12-18T09:51:18.792Z,99.99
2018-12-18T09:52:28.592Z,99.99
2018-12-18T09:53:38.693Z,99.99
2018-12-18T09:54:48.760Z,99.99
2018-12-18T09:55:58.330Z,99.99
2018-12-18T09:57:08.395Z,99.99
2018-12-18T09:58:18.467Z,99.99
2018-12-18T09:59:28.536Z,99.99
2018-12-18T10:00:38.600Z,99.99
2018-12-18T10:01:48.667Z,99.99
2018-12-18T10:02:58.715Z,99.99
2018-12-18T10:04:08.799Z,99.99
2018-12-18T10:05:18.727Z,99.99
2018-12-18T10:06:28.543Z,99.99
2018-12-18T10:07:38.603Z,99.99
2018-12-18T10:08:48.716Z,99.99
2018-12-18T10:09:58.792Z,99.99
2018-12-18T10:11:09.119Z,99.99
2018-12-18T10:12:19.222Z,99.99
2018-12-18T10:13:29.308Z,99.99
2018-12-18T10:14:40.025Z,99.99
2018-12-18T10:15:50.122Z,99.99
2018-12-18T10:17:02.511Z,99.99
2018-12-18T10:18:12.077Z,99.99
2018-12-18T10:19:21.883Z,99.99
2018-12-18T10:20:31.956Z,99.99
2018-12-18T10:21:42.026Z,99.99
2018-12-18T10:22:52.177Z,99.99
2018-12-18T10:24:02.264Z,99.99
2018-12-18T10:25:12.359Z,99.99
2018-12-18T10:26:22.179Z,99.99
2018-12-18T10:27:32.257Z,99.99
2018-12-18T10:28:42.760Z,99.99
2018-12-18T10:29:52.797Z,99.99
2018-12-18T10:31:03.578Z,99.99
2018-12-18T10:32:13.384Z,99.99
2018-12-18T10:33:23.478Z,99.99
2018-12-18T10:34:33.554Z,99.99
2018-12-18T10:35:43.353Z,99.99
2018-12-18T10:36:53.422Z,99.99
2018-12-18T10:38:03.480Z,99.99
2018-12-18T10:39:13.543Z,99.99
2018-12-18T10:40:23.350Z,99.99
2018-12-18T10:41:33.417Z,99.99
2018-12-18T10:42:43.491Z,99.99
2018-12-18T10:43:53.547Z,99.99
2018-12-18T10:45:03.712Z,99.99
2018-12-18T10:46:19.077Z,99.99
2018-12-18T10:47:29.135Z,99.99
2018-12-18T10:48:39.171Z,99.99
2018-12-18T10:49:49.260Z,99.99
2018-12-18T10:50:59.350Z,99.99
2018-12-18T10:52:09.420Z,99.99
2018-12-18T10:53:19.763Z,99.99
2018-12-18T10:54:29.835Z,99.99
2018-12-18T10:55:40.059Z,99.99
2018-12-18T10:56:50.189Z,99.99
2018-12-18T10:58:00.370Z,99.99
2018-12-18T10:59:10.211Z,99.99
2018-12-18T11:00:20.001Z,99.99
2018-12-18T11:01:30.063Z,99.99
2018-12-18T11:02:40.107Z,99.99
2018-12-18T11:03:50.192Z,99.99
2018-12-18T11:04:59.996Z,99.99
2018-12-18T11:06:12.686Z,99.99
2018-12-18T11:07:22.757Z,99.99
2018-12-18T11:08:32.326Z,99.99
2018-12-18T11:09:42.399Z,99.99
2018-12-18T11:10:52.204Z,99.99
2018-12-18T11:12:02.253Z,99.99
2018-12-18T11:13:12.334Z,99.99
2018-12-18T11:14:22.158Z,99.99
2018-12-18T11:15:32.194Z,99.99
2018-12-18T11:16:42.262Z,99.99
2018-12-18T11:17:52.079Z,99.99
2018-12-18T11:19:02.150Z,99.99
2018-12-18T11:20:12.212Z,99.99
2018-12-18T11:21:22.070Z,99.99
2018-12-18T11:22:31.894Z,99.99
2018-12-18T11:23:42.008Z,99.99
2018-12-18T11:24:51.823Z,99.99
2018-12-18T11:26:01.891Z,99.99
2018-12-18T11:27:11.944Z,99.99
2018-12-18T11:28:21.745Z,99.99
2018-12-18T11:29:31.823Z,99.99
2018-12-18T11:30:41.939Z,99.99
2018-12-18T11:31:51.760Z,99.99
2018-12-18T11:33:01.822Z,99.99
2018-12-18T11:34:11.895Z,99.99
2018-12-18T11:35:21.955Z,99.99
2018-12-18T11:36:31.781Z,99.99
2018-12-18T11:37:41.840Z,99.95
2018-12-18T11:38:51.909Z,99.95
2018-12-18T11:40:01.978Z,99.46
2018-12-18T11:41:12.114Z,99.46
2018-12-18T11:42:22.222Z,99.95
2018-12-18T11:43:32.018Z,99.99
2018-12-18T11:44:42.093Z,99.99
2018-12-18T11:45:52.154Z,99.99
2018-12-18T11:47:02.234Z,99.99
2018-12-18T11:48:12.043Z,99.99
2018-12-18T11:49:22.141Z,99.99
2018-12-18T11:50:32.041Z,99.99
2018-12-18T11:51:42.308Z,99.99
2018-12-18T11:52:52.139Z,99.99
2018-12-18T11:54:02.074Z,99.99
2018-12-18T11:55:12.258Z,99.99
2018-12-18T11:56:22.079Z,99.99
2018-12-18T11:57:32.122Z,99.99
2018-12-18T11:58:42.172Z,99.99
2018-12-18T11:59:51.990Z,99.99
2018-12-18T12:01:02.062Z,99.99
2018-12-18T12:02:12.166Z,99.99
2018-12-18T12:03:21.975Z,99.99
2018-12-18T12:04:32.062Z,99.99
2018-12-18T12:05:41.918Z,99.99
2018-12-18T12:06:51.974Z,99.99
2018-12-18T12:08:02.053Z,99.99
2018-12-18T12:09:12.115Z,99.99
2018-12-18T12:10:22.200Z,99.99
2018-12-18T12:11:31.745Z,99.99
2018-12-18T12:12:43.319Z,99.99
2018-12-18T12:13:53.380Z,99.99
2018-12-18T12:15:03.433Z,99.99
2018-12-18T12:16:13.515Z,99.99
2018-12-18T12:17:23.061Z,99.99
2018-12-18T12:18:32.616Z,99.99
2018-12-18T12:19:42.438Z,99.99
2018-12-18T12:20:52.741Z,99.99
2018-12-18T12:22:02.805Z,99.09
2018-12-18T12:23:12.934Z,98.9
2018-12-18T12:24:24.337Z,98.43
2018-12-18T12:25:34.448Z,98.61
2018-12-18T12:26:44.536Z,98.28
2018-12-18T12:27:54.444Z,99.48
2018-12-18T12:29:06.257Z,99.76
2018-12-18T12:30:16.341Z,99.99
2018-12-18T12:31:26.167Z,99.99
2018-12-18T12:32:36.243Z,99.99
2018-12-18T12:33:46.324Z,99.99
2018-12-18T12:34:56.635Z,99.99
2018-12-18T12:36:08.002Z,99.99
2018-12-18T12:37:18.055Z,99.99
2018-12-18T12:38:28.127Z,99.99
2018-12-18T12:39:38.204Z,99.99
2018-12-18T12:40:48.016Z,99.99
2018-12-18T12:41:58.134Z,99.99
2018-12-18T12:43:09.932Z,99.99
2018-12-18T12:44:20.027Z,99.99
2018-12-18T12:45:30.093Z,99.99
2018-12-18T12:46:40.179Z,99.99
2018-12-18T12:47:50.276Z,99.99
2018-12-18T12:49:02.985Z,99.99
2018-12-18T12:50:12.803Z,99.99
2018-12-18T12:51:22.361Z,99.99
2018-12-18T12:52:32.702Z,99.99
2018-12-18T12:53:42.802Z,99.99
2018-12-18T12:54:52.868Z,99.99
2018-12-18T12:56:04.620Z,99.99
2018-12-18T12:57:14.669Z,99.99
2018-12-18T12:58:24.479Z,99.99
2018-12-18T12:59:34.736Z,99.99
2018-12-18T13:00:44.820Z,99.99
2018-12-18T13:01:54.642Z,99.99
2018-12-18T13:03:04.746Z,99.99
2018-12-18T13:04:14.821Z,99.99
2018-12-18T13:05:24.903Z,99.99
2018-12-18T13:06:38.962Z,99.99
2018-12-18T13:07:48.788Z,99.99
2018-12-18T13:08:59.198Z,99.99
2018-12-18T13:10:09.259Z,99.99
2018-12-18T13:11:19.596Z,99.99
2018-12-18T13:12:29.661Z,99.99
2018-12-18T13:13:39.729Z,99.99
2018-12-18T13:14:49.800Z,99.99
2018-12-18T13:15:59.858Z,99.99
2018-12-18T13:17:10.192Z,99.99
2018-12-18T13:18:20.291Z,99.99
2018-12-18T13:19:30.615Z,99.99
2018-12-18T13:20:40.444Z,99.99
2018-12-18T13:21:50.514Z,99.99
2018-12-18T13:23:00.605Z,99.99
2018-12-18T13:24:10.692Z,99.99
2018-12-18T13:25:20.826Z,99.99
2018-12-18T13:26:30.904Z,99.99
2018-12-18T13:27:40.978Z,99.99
2018-12-18T13:28:51.035Z,99.99
2018-12-18T13:30:01.108Z,99.99
2018-12-18T13:31:10.975Z,99.99
2018-12-18T13:32:21.049Z,99.99
2018-12-18T13:33:31.111Z,99.99
2018-12-18T13:34:40.923Z,99.99
2018-12-18T13:35:51.005Z,99.99
2018-12-18T13:37:01.556Z,99.99
2018-12-18T13:38:11.657Z,99.99
2018-12-18T13:39:21.729Z,99.99
2018-12-18T13:40:32.279Z,99.99
2018-12-18T13:41:42.457Z,99.99
2018-12-18T13:42:52.570Z,99.99
2018-12-18T13:44:02.764Z,99.99
2018-12-18T13:45:12.575Z,99.99
2018-12-18T13:46:22.636Z,99.99
2018-12-18T13:47:32.694Z,99.99
2018-12-18T13:48:42.812Z,99.99
2018-12-18T13:49:52.950Z,99.99
2018-12-18T13:51:03.063Z,99.99
2018-12-18T13:52:13.143Z,99.99
2018-12-18T13:53:23.280Z,99.99
2018-12-18T13:54:33.594Z,99.99
2018-12-18T13:55:43.657Z,99.99
2018-12-18T13:56:53.718Z,99.99
2018-12-18T13:58:03.779Z,99.99
2018-12-18T13:59:13.858Z,99.99
2018-12-18T14:00:23.735Z,99.99
2018-12-18T14:01:33.567Z,99.99
2018-12-18T14:02:43.404Z,99.99
2018-12-18T14:03:53.548Z,99.99
2018-12-18T14:05:03.356Z,99.99
2018-12-18T14:06:13.161Z,99.99
2018-12-18T14:07:23.226Z,99.99
2018-12-18T14:08:33.101Z,99.99
2018-12-18T14:09:42.905Z,99.99
2018-12-18T14:10:52.711Z,99.99
2018-12-18T14:12:04.780Z,99.99
2018-12-18T14:13:14.853Z,99.99
2018-12-18T14:14:24.936Z,99.99
2018-12-18T14:15:35.203Z,99.99
2018-12-18T14:16:45.277Z,99.99
2018-12-18T14:17:55.343Z,99.99
2018-12-18T14:19:07.635Z,99.99
2018-12-18T14:20:17.708Z,99.99
2018-12-18T14:21:27.757Z,99.99
2018-12-18T14:22:37.853Z,99.99
2018-12-18T14:23:47.989Z,99.99
2018-12-18T14:24:57.548Z,99.99
2018-12-18T14:26:08.741Z,99.99
2018-12-18T14:27:18.894Z,99.99
2018-12-18T14:28:28.940Z,99.99
2018-12-18T14:29:38.999Z,99.99
2018-12-18T14:30:48.850Z,99.99
2018-12-18T14:31:58.694Z,99.99
2018-12-18T14:33:08.511Z,99.99
2018-12-18T14:34:18.313Z,99.99
2018-12-18T14:35:27.898Z,99.99
2018-12-18T14:36:38.311Z,99.99
2018-12-18T14:37:48.521Z,99.99
2018-12-18T14:38:58.318Z,99.99
2018-12-18T14:40:12.179Z,99.99
2018-12-18T14:41:21.965Z,99.99
2018-12-18T14:42:32.025Z,99.99
2018-12-18T14:43:41.831Z,99.99
2018-12-18T14:44:51.922Z,99.99
2018-12-18T14:46:02.031Z,99.99
2018-12-18T14:47:11.835Z,99.99
2018-12-18T14:48:21.897Z,99.99
2018-12-18T14:49:31.710Z,99.99
2018-12-18T14:50:41.764Z,99.99
2018-12-18T14:51:51.816Z,99.99
2018-12-18T14:53:01.886Z,99.99
2018-12-18T14:54:11.947Z,99.99
2018-12-18T14:55:22.024Z,99.99
2018-12-18T14:56:32.082Z,99.99
2018-12-18T14:57:42.264Z,99.99
2018-12-18T14:58:52.371Z,99.99
2018-12-18T15:00:02.437Z,99.99
2018-12-18T15:01:12.529Z,99.99
2018-12-18T15:02:22.595Z,99.99
2018-12-18T15:03:32.661Z,99.99
2018-12-18T15:04:42.500Z,99.99
2018-12-18T15:05:52.575Z,99.99
2018-12-18T15:07:05.526Z,99.99
2018-12-18T15:08:15.579Z,99.99
2018-12-18T15:09:25.671Z,99.99
2018-12-18T15:10:35.725Z,99.99
2018-12-18T15:11:45.819Z,99.99
2018-12-18T15:12:55.911Z,99.99
2018-12-18T15:14:06.212Z,99.99
2018-12-18T15:15:16.308Z,99.99
2018-12-18T15:16:26.407Z,99.99
2018-12-18T15:17:36.476Z,99.99
2018-12-18T15:18:46.550Z,99.99
2018-12-18T15:19:56.615Z,99.99
2018-12-18T15:21:06.736Z,99.99
2018-12-18T15:22:16.827Z,99.99
2018-12-18T15:23:26.916Z,99.99
2018-12-18T15:24:36.992Z,99.99
2018-12-18T15:25:47.059Z,99.99
2018-12-18T15:26:56.852Z,99.99
2018-12-18T15:28:06.926Z,99.99
2018-12-18T15:29:16.756Z,99.99
2018-12-18T15:30:28.620Z,99.99
2018-12-18T15:31:38.697Z,99.99
2018-12-18T15:32:48.767Z,99.99
2018-12-18T15:33:58.878Z,99.99